ADDS METAR Data INFO
IDs: Format: Raw Decoded Include TAF

Data at: 0839 UTC 21 Oct 2017

KJXN 210756Z AUTO 00000KT 10SM CLR 13/09 A3016 RMK AO2 SLP210 T01330094
KJXN 210656Z AUTO 23003KT 10SM CLR 13/09 A3015 RMK AO2 SLP207 T01280089
KJXN 210556Z AUTO 18007KT 10SM CLR 15/09 A3015 RMK AO2 SLP206 T01500094 10183 20117 53001
KJXN 210456Z AUTO 16007KT 10SM CLR 14/10 A3015 RMK AO2 SLP207 T01390100 402330028
KJXN 210356Z AUTO 16007KT 10SM CLR 14/09 A3014 RMK AO2 SLP206 T01390094
KJXN 210256Z AUTO 15004KT 10SM CLR 12/09 A3015 RMK AO2 SLP208 T01170089 53000
KJXN 210156Z AUTO 16006KT 10SM CLR 16/10 A3014 RMK AO2 SLP205 T01560100
KJXN 210056Z 15005KT 10SM CLR 17/10 A3014 RMK AO2 SLP207 T01670100
KJXN 202356Z 13003KT 10SM CLR 19/11 A3014 RMK AO2 SLP210 T01890106 10233 20178 56001
KJXN 202256Z 15004KT 10SM CLR 20/11 A3014 RMK AO2 SLP209 T02000106
KJXN 202156Z 16005KT 10SM CLR 22/11 A3015 RMK AO2 SLP210 T02170111
KJXN 202056Z 18008KT 10SM CLR 23/11 A3015 RMK AO2 SLP209 T02280106 56018
KJXN 201956Z 18009KT 10SM CLR 23/10 A3017 RMK AO2 SLP215 T02330100
KJXN 201856Z 17010G18KT 10SM CLR 23/09 A3018 RMK AO2 SLP220 T02330089
KJXN 201756Z 17012KT 10SM CLR 23/09 A3020 RMK AO2 SLP228 T02280089 10228 20044 58019
KJXN 201656Z 16008KT 10SM CLR 21/08 A3023 RMK AO2 SLP238 T02110078
KJXN 201556Z 18008KT 10SM CLR 19/06 A3025 RMK AO2 SLP245 T01940056
KJXN 201456Z 16006KT 10SM CLR 17/04 A3026 RMK AO2 SLP249 T01670044 50005
KJXN 201356Z 16007KT 10SM CLR 12/02 A3026 RMK AO2 SLP252 T01220022
KJXN 201256Z 12003KT 10SM CLR 09/02 A3026 RMK AO2 SLP252 T00940022
KJXN 201156Z 00000KT 10SM CLR 05/02 A3025 RMK AO2 SLP246 T00500022 10061 20028 51012
KJXN 201056Z 00000KT 10SM CLR 05/02 A3024 RMK AO2 SLP243 T00500022
KJXN 200956Z AUTO 21004KT 10SM CLR 04/02 A3023 RMK AO2 SLP238 T00390017
KJXN 200856Z AUTO 00000KT 10SM CLR 05/02 A3021 RMK AO2 SLP232 T00500022 58003
KJXN 200756Z AUTO 00000KT 10SM CLR 05/02 A3021 RMK AO2 SLP233 T00500017
KJXN 200656Z AUTO 00000KT 10SM CLR 06/02 A3022 RMK AO2 SLP233 T00560022
KJXN 200556Z AUTO 20003KT 10SM CLR 06/02 A3022 RMK AO2 SLP234 T00610022 10133 20056 52008
KJXN 200456Z AUTO 00000KT 10SM CLR 07/03 A3021 RMK AO2 SLP231 T00670028 402000056
KJXN 200356Z AUTO 21004KT 10SM CLR 07/03 A3020 RMK AO2 SLP229 T00670028
KJXN 200256Z AUTO 22004KT 10SM CLR 08/02 A3019 RMK AO2 SLP226 T00780022 53007
KJXN 200156Z AUTO 21004KT 10SM CLR 08/03 A3018 RMK AO2 SLP222 T00830028
KJXN 200056Z 21004KT 10SM CLR 10/02 A3017 RMK AO2 SLP219 T01000017
KJXN 192356Z 26003KT 10SM CLR 13/M02 A3017 RMK AO2 SLP218 T01331017 10200 20128 53011
KJXN 192256Z 25004KT 10SM CLR 14/M02 A3015 RMK AO2 SLP212 T01441022
KJXN 192156Z 26007KT 10SM CLR 18/M03 A3015 RMK AO2 SLP208 T01831033
KJXN 192056Z 26011KT 10SM CLR 19/M02 A3014 RMK AO2 SLP204 T01891017 53002